1898 NOT_NAMED (1898040S11063)


IBTrACS version v04r00. Visit IBTrACS website for data access.
Please direct all questions to the IBTrACS Q and A forum

Storm track - Intensity - Wind Radii - Intensity Data - Source Data - All data

Summary Information

Storm ID 1898040S11063
Start Feb 9 00Z
End Feb 15 00Z
ATCF IDs
Track status Best track data.

Storm track plot

Map of storm track

Intensity plots

No Intensity information for this storm


Radial wind information

No radial wind information for this storm


Position and Intensity Table

BASIN ISO_TIME_________ NATURE LAT LON
degrees north degrees east
SI 1898-02-09 00:00:00 TS -11.00 62.90
SI 03:00:00 TS -11.34 62.85
SI 06:00:00 TS -11.70 62.80
SI 09:00:00 TS -12.09 62.75
SI 12:00:00 TS -12.50 62.70
SI 15:00:00 TS -12.94 62.64
SI 18:00:00 TS -13.40 62.60
SI 21:00:00 TS -13.86 62.59
SI 1898-02-10 00:00:00 TS -14.30 62.60
SI 03:00:00 TS -14.67 62.60
SI 06:00:00 TS -15.00 62.60
SI 09:00:00 TS -15.29 62.60
SI 12:00:00 TS -15.60 62.60
SI 15:00:00 TS -15.99 62.59
SI 18:00:00 TS -16.40 62.60
SI 21:00:00 TS -16.81 62.64
SI 1898-02-11 00:00:00 TS -17.20 62.70
SI 03:00:00 TS -17.56 62.75
SI 06:00:00 TS -17.90 62.80
SI 09:00:00 TS -18.26 62.85
SI 12:00:00 TS -18.60 62.90
SI 15:00:00 TS -18.91 62.94
SI 18:00:00 TS -19.20 63.00
SI 21:00:00 TS -19.44 63.09
SI 1898-02-12 00:00:00 TS -19.70 63.20
SI 03:00:00 TS -20.04 63.34
SI 06:00:00 TS -20.40 63.50
SI 09:00:00 TS -20.77 63.66
SI 12:00:00 TS -21.10 63.80
SI 15:00:00 TS -21.36 63.90
SI 18:00:00 TS -21.60 64.00
SI 21:00:00 TS -21.84 64.13
SI 1898-02-13 00:00:00 TS -22.10 64.30
SI 03:00:00 TS -22.39 64.53
SI 06:00:00 TS -22.70 64.80
SI 09:00:00 TS -23.01 65.06
SI 12:00:00 TS -23.30 65.30
SI 15:00:00 TS -23.56 65.47
SI 18:00:00 TS -23.80 65.60
SI 21:00:00 TS -24.05 65.74
SI 1898-02-14 00:00:00 TS -24.30 65.90
SI 03:00:00 TS -24.56 66.13
SI 06:00:00 TS -24.80 66.40
SI 09:00:00 TS -25.01 66.66
SI 12:00:00 TS -25.20 66.90
SI 15:00:00 TS -25.41 67.10
SI 18:00:00 TS -25.60 67.30
SI 21:00:00 TS -25.76 67.54
SI 1898-02-15 00:00:00 TS -25.90 67.80

Source Information

Agency Information
USA
TOKYO
CMA
HKO
NEWDELHI
REUNION
BOM
NADI
WELLINGTON
DS824 s_hem.dat:98:NOT NAMED
TD9636
TD9635
NEUMANN
MLC

All available IBTrACS Data

SEASON BASIN SUBBASIN ISO_TIME_________ NATURE LAT LON DIST2LAND LANDFALL IFLAG USA SSHS DS824 LAT DS824 LON DS824 STAGE STORM SPEED STORM DIR
Year degrees north degrees east km km 1 degrees north degrees east kts degrees
1898 SI MM 1898-02-09 00:00:00 TS -11.00 62.90 1160 1131 _________O____ -1 -11.00 62.90 TC 7 189
1898 SI MM 03:00:00 TS -11.34 62.85 1131 1086 _________P____ -1 -11.34 62.85 TC 7 188
1898 SI MM 06:00:00 TS -11.70 62.80 1086 1047 _________O____ -1 -11.70 62.80 TC 8 187
1898 SI MM 09:00:00 TS -12.09 62.75 1042 1003 _________P____ -1 -12.09 62.75 TC 8 187
1898 SI MM 12:00:00 TS -12.50 62.70 1003 960 _________O____ -1 -12.50 62.70 TC 9 187
1898 SI MM 15:00:00 TS -12.94 62.64 960 913 _________P____ -1 -12.94 62.64 TC 9 186
1898 SI MM 18:00:00 TS -13.40 62.60 913 876 _________O____ -1 -13.40 62.60 TC 9 184
1898 SI MM 21:00:00 TS -13.86 62.59 867 831 _________P____ -1 -13.86 62.59 TC 9 0
1898 SI MM 1898-02-10 00:00:00 TS -14.30 62.60 831 797 _________O____ -1 -14.30 62.60 TC 8 178
1898 SI MM 03:00:00 TS -14.67 62.60 797 771 _________P____ -1 -14.67 62.60 TC 7 0
1898 SI MM 06:00:00 TS -15.00 62.60 771 746 _________O____ -1 -15.00 62.60 TC 6 178
1898 SI MM 09:00:00 TS -15.29 62.60 746 722 _________P____ -1 -15.29 62.60 TC 6 179
1898 SI MM 12:00:00 TS -15.60 62.60 722 691 _________O____ -1 -15.60 62.60 TC 7 0
1898 SI MM 15:00:00 TS -15.99 62.59 691 662 _________P____ -1 -15.99 62.59 TC 8 179
1898 SI MM 18:00:00 TS -16.40 62.60 662 635 _________O____ -1 -16.40 62.60 TC 8 177
1898 SI MM 21:00:00 TS -16.81 62.64 635 618 _________P____ -1 -16.81 62.64 TC 8 173
1898 SI MM 1898-02-11 00:00:00 TS -17.20 62.70 618 601 _________O____ -1 -17.20 62.70 TC 8 172
1898 SI MM 03:00:00 TS -17.56 62.75 605 589 _________P____ -1 -17.56 62.75 TC 7 172
1898 SI MM 06:00:00 TS -17.90 62.80 589 575 _________O____ -1 -17.90 62.80 TC 7 172
1898 SI MM 09:00:00 TS -18.26 62.85 580 567 _________P____ -1 -18.26 62.85 TC 7 172
1898 SI MM 12:00:00 TS -18.60 62.90 567 556 _________O____ -1 -18.60 62.90 TC 7 172
1898 SI MM 15:00:00 TS -18.91 62.94 556 556 _________P____ -1 -18.91 62.94 TC 6 171
1898 SI MM 18:00:00 TS -19.20 63.00 557 555 _________O____ -1 -19.20 63.00 TC 5 165
1898 SI MM 21:00:00 TS -19.44 63.09 563 559 _________P____ -1 -19.44 63.09 TC 5 159
1898 SI MM 1898-02-12 00:00:00 TS -19.70 63.20 568 566 _________O____ -1 -19.70 63.20 TC 6 158
1898 SI MM 03:00:00 TS -20.04 63.34 575 575 _________P____ -1 -20.04 63.34 TC 8 158
1898 SI MM 06:00:00 TS -20.40 63.50 594 594 _________O____ -1 -20.40 63.50 TC 8 158
1898 SI MM 09:00:00 TS -20.77 63.66 616 616 _________P____ -1 -20.77 63.66 TC 8 158
1898 SI MM 12:00:00 TS -21.10 63.80 630 630 _________O____ -1 -21.10 63.80 TC 6 159
1898 SI MM 15:00:00 TS -21.36 63.90 645 645 _________P____ -1 -21.36 63.90 TC 5 160
1898 SI MM 18:00:00 TS -21.60 64.00 659 659 _________O____ -1 -21.60 64.00 TC 5 156
1898 SI MM 21:00:00 TS -21.84 64.13 674 674 _________P____ -1 -21.84 64.13 TC 6 151
1898 SI MM 1898-02-13 00:00:00 TS -22.10 64.30 703 703 _________O____ -1 -22.10 64.30 TC 7 146
1898 SI MM 03:00:00 TS -22.39 64.53 732 732 _________P____ -1 -22.39 64.53 TC 8 142
1898 SI MM 06:00:00 TS -22.70 64.80 772 772 _________O____ -1 -22.70 64.80 TC 8 141
1898 SI MM 09:00:00 TS -23.01 65.06 812 812 _________P____ -1 -23.01 65.06 TC 8 143
1898 SI MM 12:00:00 TS -23.30 65.30 843 843 _________O____ -1 -23.30 65.30 TC 7 146
1898 SI MM 15:00:00 TS -23.56 65.47 874 874 _________P____ -1 -23.56 65.47 TC 6 151
1898 SI MM 18:00:00 TS -23.80 65.60 892 892 _________O____ -1 -23.80 65.60 TC 6 153
1898 SI MM 21:00:00 TS -24.05 65.74 911 911 _________P____ -1 -24.05 65.74 TC 6 151
1898 SI MM 1898-02-14 00:00:00 TS -24.30 65.90 943 943 _________O____ -1 -24.30 65.90 TC 6 144
1898 SI MM 03:00:00 TS -24.56 66.13 976 976 _________P____ -1 -24.56 66.13 TC 7 138
1898 SI MM 06:00:00 TS -24.80 66.40 1013 1013 _________O____ -1 -24.80 66.40 TC 7 133
1898 SI MM 09:00:00 TS -25.01 66.66 1050 1050 _________P____ -1 -25.01 66.66 TC 6 131
1898 SI MM 12:00:00 TS -25.20 66.90 1078 1078 _________O____ -1 -25.20 66.90 TC 6 135
1898 SI MM 15:00:00 TS -25.41 67.10 1106 1106 _________P____ -1 -25.41 67.10 TC 5 138
1898 SI MM 18:00:00 TS -25.60 67.30 1134 1134 _________O____ -1 -25.60 67.30 TC 5 132
1898 SI MM 21:00:00 TS -25.76 67.54 1162 1162 _________P____ -1 -25.76 67.54 TC 5 124
1898 SI MM 1898-02-15 00:00:00 TS -25.90 67.80 1194 _________O____ -1 -25.90 67.80 TC 5 121